createdAt,value
2022-10-31T00:00:15.283Z,67.00
2022-10-31T00:02:42.344Z,67.15
2022-10-31T00:05:08.681Z,67.24
2022-10-31T00:07:34.997Z,66.93
2022-10-31T00:10:01.329Z,67.25
2022-10-31T00:12:27.685Z,67.30
2022-10-31T00:14:53.996Z,67.26
2022-10-31T00:17:20.329Z,67.24
2022-10-31T00:19:46.651Z,66.94
2022-10-31T00:22:13.000Z,66.91
2022-10-31T00:24:39.319Z,67.02
2022-10-31T00:27:05.638Z,67.02
2022-10-31T00:29:31.964Z,67.32
2022-10-31T00:31:58.280Z,66.95
2022-10-31T00:37:18.302Z,67.20
2022-10-31T00:39:46.116Z,67.32
2022-10-31T00:42:12.420Z,66.87
2022-10-31T00:44:38.754Z,67.22
2022-10-31T00:47:05.079Z,66.80
2022-10-31T00:49:31.417Z,66.90
2022-10-31T00:51:57.742Z,66.96
2022-10-31T00:54:24.072Z,67.12
2022-10-31T00:56:50.442Z,66.91
2022-10-31T00:59:16.845Z,66.76
2022-10-31T01:01:43.280Z,66.85
2022-10-31T01:04:09.696Z,66.97
2022-10-31T01:06:36.021Z,66.73
2022-10-31T01:09:02.360Z,67.02
2022-10-31T01:11:28.681Z,67.01
2022-10-31T01:13:55.051Z,66.79
2022-10-31T01:16:22.390Z,67.00
2022-10-31T01:18:50.054Z,66.80
2022-10-31T01:21:23.250Z,66.75
2022-10-31T01:23:49.788Z,66.85
2022-10-31T01:26:16.887Z,66.73
2022-10-31T01:28:50.255Z,66.97
2022-10-31T01:31:16.905Z,67.03
2022-10-31T01:33:43.255Z,66.71
2022-10-31T01:36:13.451Z,66.66
2022-10-31T01:38:39.783Z,66.56
2022-10-31T01:41:06.361Z,66.91
2022-10-31T01:43:49.771Z,66.60
2022-10-31T01:46:16.748Z,66.52
2022-10-31T01:48:43.608Z,66.88
2022-10-31T01:51:10.293Z,66.64
2022-10-31T01:53:36.616Z,66.51
2022-10-31T01:56:02.940Z,66.77
2022-10-31T01:58:30.556Z,66.85
2022-10-31T02:01:00.525Z,66.62
2022-10-31T02:03:29.739Z,66.42
2022-10-31T02:05:56.884Z,66.42
2022-10-31T02:08:27.413Z,66.62
2022-10-31T02:10:53.746Z,66.88
2022-10-31T02:13:20.179Z,66.88
2022-10-31T02:15:50.159Z,66.62
2022-10-31T02:18:16.484Z,66.50
2022-10-31T02:20:49.664Z,66.71
2022-10-31T02:23:15.921Z,66.34
2022-10-31T02:26:05.432Z,66.52
2022-10-31T02:28:35.921Z,66.51
2022-10-31T02:31:06.683Z,66.51
2022-10-31T02:33:36.523Z,66.80
2022-10-31T02:36:04.032Z,66.79
2022-10-31T02:38:43.914Z,66.53
2022-10-31T02:41:20.568Z,66.80
2022-10-31T02:43:59.412Z,66.87
2022-10-31T02:46:27.820Z,66.75
2022-10-31T02:48:54.173Z,67.05
2022-10-31T02:51:20.502Z,66.78
2022-10-31T02:53:47.943Z,66.58
2022-10-31T02:56:17.851Z,66.54
2022-10-31T02:59:05.444Z,66.22
2022-10-31T03:01:40.442Z,66.64
2022-10-31T03:04:18.532Z,66.53
2022-10-31T03:06:56.443Z,66.62
2022-10-31T03:09:24.308Z,66.15
2022-10-31T03:12:08.866Z,66.11
2022-10-31T03:14:48.456Z,66.44
2022-10-31T03:17:17.460Z,66.43
2022-10-31T03:19:44.891Z,66.38
2022-10-31T03:22:15.556Z,66.47
2022-10-31T03:24:43.753Z,66.17
2022-10-31T03:27:10.966Z,66.38
2022-10-31T03:29:37.471Z,66.21
2022-10-31T03:32:09.003Z,66.01
2022-10-31T03:34:36.088Z,66.06
2022-10-31T03:37:02.875Z,65.86
2022-10-31T03:39:29.207Z,66.09
2022-10-31T03:42:21.853Z,65.85
2022-10-31T03:44:50.972Z,66.03
2022-10-31T03:47:17.881Z,65.71
2022-10-31T03:49:48.401Z,65.65
2022-10-31T03:52:18.820Z,65.89
2022-10-31T03:54:45.672Z,65.72
2022-10-31T03:57:17.634Z,66.16
2022-10-31T03:59:45.441Z,66.41
2022-10-31T04:02:18.051Z,66.35
2022-10-31T04:04:45.086Z,66.48
2022-10-31T04:07:12.358Z,66.52
2022-10-31T04:09:39.556Z,66.40
2022-10-31T04:12:06.391Z,66.37
2022-10-31T04:14:52.448Z,66.23
2022-10-31T04:17:19.478Z,66.34
2022-10-31T04:19:45.851Z,66.33
2022-10-31T04:22:12.689Z,66.39
2022-10-31T04:24:39.447Z,66.51
2022-10-31T04:27:05.863Z,66.46
2022-10-31T04:29:32.616Z,66.47
2022-10-31T04:31:58.990Z,66.35
2022-10-31T04:34:25.801Z,66.32
2022-10-31T04:36:52.187Z,66.37
2022-10-31T04:39:22.646Z,66.39
2022-10-31T04:42:18.193Z,66.31
2022-10-31T04:44:44.537Z,66.69
2022-10-31T04:47:10.915Z,66.87
2022-10-31T04:49:37.265Z,66.50
2022-10-31T04:52:03.681Z,66.28
2022-10-31T04:54:30.546Z,66.66
2022-10-31T04:57:41.060Z,66.76
2022-10-31T05:00:07.678Z,66.82
2022-10-31T05:02:34.516Z,66.62
2022-10-31T05:05:00.946Z,66.22
2022-10-31T05:07:27.304Z,66.63
2022-10-31T05:09:54.380Z,66.40
2022-10-31T05:12:20.730Z,66.21
2022-10-31T05:15:09.735Z,66.26
2022-10-31T05:18:02.693Z,66.14
2022-10-31T05:20:47.901Z,66.26
2022-10-31T05:23:25.445Z,66.45
2022-10-31T05:25:51.778Z,66.38
2022-10-31T05:28:18.268Z,66.66
2022-10-31T05:30:44.656Z,66.53
2022-10-31T05:33:14.552Z,66.52
2022-10-31T05:35:40.886Z,66.54
2022-10-31T05:38:27.213Z,66.73
2022-10-31T05:40:58.544Z,66.62
2022-10-31T05:43:25.532Z,66.69
2022-10-31T05:45:55.513Z,66.57
2022-10-31T05:48:40.461Z,66.58
2022-10-31T05:51:25.381Z,66.71
2022-10-31T05:53:51.758Z,66.37
2022-10-31T05:56:21.879Z,66.45
2022-10-31T05:58:49.477Z,67.15
2022-10-31T06:01:15.890Z,66.39
2022-10-31T06:03:44.808Z,65.99
2022-10-31T06:06:15.250Z,61.67
2022-10-31T06:08:41.586Z,63.80
2022-10-31T06:11:13.952Z,64.56
2022-10-31T06:13:58.672Z,63.85
2022-10-31T06:16:32.281Z,64.34
2022-10-31T06:19:08.745Z,64.18
2022-10-31T06:21:35.132Z,63.93
2022-10-31T06:24:01.542Z,63.84
2022-10-31T06:26:46.283Z,63.96
2022-10-31T06:29:13.419Z,63.84
2022-10-31T06:31:58.218Z,63.92
2022-10-31T06:34:24.591Z,64.15
2022-10-31T06:36:50.912Z,63.74
2022-10-31T06:39:20.805Z,63.76
2022-10-31T06:41:48.274Z,63.91
2022-10-31T06:44:16.484Z,67.06
2022-10-31T06:46:54.632Z,66.45
2022-10-31T06:49:37.260Z,64.83
2022-10-31T06:52:12.418Z,63.96
2022-10-31T06:54:38.806Z,63.50
2022-10-31T06:57:05.144Z,62.35
2022-10-31T06:59:31.896Z,62.33
2022-10-31T07:02:14.678Z,61.65
2022-10-31T07:04:42.933Z,61.06
2022-10-31T07:07:12.743Z,60.78
2022-10-31T07:09:39.575Z,60.48
2022-10-31T07:12:07.229Z,60.38
2022-10-31T07:14:37.725Z,58.91
2022-10-31T07:17:04.053Z,59.35
2022-10-31T07:19:37.450Z,59.26
2022-10-31T07:22:03.787Z,58.47
2022-10-31T07:24:31.364Z,58.38
2022-10-31T07:27:23.727Z,58.97
2022-10-31T07:29:50.050Z,59.79
2022-10-31T07:32:16.924Z,60.64
2022-10-31T07:34:50.477Z,59.85
2022-10-31T07:37:20.482Z,60.43
2022-10-31T07:39:47.942Z,59.77
2022-10-31T07:42:14.297Z,60.35
2022-10-31T07:44:44.130Z,61.06
2022-10-31T07:47:45.939Z,61.77
2022-10-31T07:50:40.991Z,61.92
2022-10-31T07:53:36.052Z,61.82
2022-10-31T07:56:18.143Z,62.09
2022-10-31T07:58:44.661Z,62.11
2022-10-31T08:03:50.641Z,62.45
2022-10-31T08:06:35.494Z,62.85
2022-10-31T08:09:16.308Z,62.68
2022-10-31T08:11:44.497Z,62.76
2022-10-31T08:14:10.835Z,62.88
2022-10-31T08:16:37.172Z,63.08
2022-10-31T08:19:05.681Z,63.29
2022-10-31T08:21:37.179Z,63.07
2022-10-31T08:24:03.612Z,63.30
2022-10-31T08:26:30.010Z,63.25
2022-10-31T08:28:56.687Z,61.62
2022-10-31T08:31:32.982Z,61.73
2022-10-31T08:34:18.813Z,61.93
2022-10-31T08:37:05.113Z,62.04
2022-10-31T08:39:39.864Z,62.23
2022-10-31T08:42:06.242Z,61.45
2022-10-31T08:44:32.595Z,61.71
2022-10-31T08:46:58.930Z,61.72
2022-10-31T08:49:25.288Z,61.74
2022-10-31T08:51:52.066Z,62.18
2022-10-31T08:54:20.579Z,61.47
2022-10-31T08:56:49.571Z,61.68
2022-10-31T08:59:29.458Z,61.65
2022-10-31T09:02:14.353Z,61.99
2022-10-31T09:04:40.733Z,62.49
2022-10-31T09:07:22.487Z,62.36
2022-10-31T09:09:48.815Z,62.18
2022-10-31T09:12:15.161Z,62.05
2022-10-31T09:15:07.747Z,62.59
2022-10-31T09:17:48.686Z,62.32
2022-10-31T09:20:30.576Z,62.01
2022-10-31T09:22:58.383Z,61.32
2022-10-31T09:25:24.755Z,61.56
2022-10-31T09:28:05.382Z,61.77
2022-10-31T09:30:32.513Z,61.66
2022-10-31T09:32:59.649Z,62.31
2022-10-31T09:35:26.145Z,62.97
2022-10-31T09:37:55.844Z,63.14
2022-10-31T09:40:22.295Z,63.33
2022-10-31T09:42:52.345Z,63.73
2022-10-31T09:45:26.227Z,63.71
2022-10-31T09:48:08.864Z,63.88
2022-10-31T09:50:44.384Z,63.79
2022-10-31T09:53:38.735Z,63.44
2022-10-31T09:56:07.255Z,63.48
2022-10-31T09:58:36.715Z,63.00
2022-10-31T10:01:04.763Z,62.47
2022-10-31T10:03:36.193Z,62.77
2022-10-31T10:06:16.158Z,62.61
2022-10-31T10:09:17.666Z,62.49
2022-10-31T10:12:15.835Z,62.78
2022-10-31T10:14:45.759Z,62.77
2022-10-31T10:17:24.109Z,62.77
2022-10-31T10:19:54.554Z,62.49
2022-10-31T10:22:30.197Z,62.70
2022-10-31T10:25:11.855Z,63.05
2022-10-31T10:27:57.131Z,63.27
2022-10-31T10:30:24.577Z,63.18
2022-10-31T10:33:04.056Z,62.94
2022-10-31T10:35:31.373Z,62.95
2022-10-31T10:38:16.114Z,63.24
2022-10-31T10:40:42.447Z,63.02
2022-10-31T10:43:22.993Z,63.37
2022-10-31T10:46:27.007Z,62.66
2022-10-31T10:48:56.087Z,63.55
2022-10-31T10:51:47.046Z,62.72
2022-10-31T10:54:14.675Z,62.81
2022-10-31T10:56:43.374Z,63.05
2022-10-31T10:59:10.811Z,62.88
2022-10-31T11:01:37.127Z,62.67
2022-10-31T11:04:03.628Z,62.32
2022-10-31T11:06:30.013Z,62.34
2022-10-31T11:08:56.338Z,62.40
2022-10-31T11:11:26.716Z,62.50
2022-10-31T11:14:13.234Z,62.84
2022-10-31T11:16:41.537Z,62.75
2022-10-31T11:19:15.914Z,63.05
2022-10-31T11:21:42.243Z,63.22
2022-10-31T11:24:11.346Z,63.10
2022-10-31T11:26:41.346Z,63.12
2022-10-31T11:29:13.548Z,62.77
2022-10-31T11:31:39.868Z,62.71
2022-10-31T11:34:07.282Z,62.80
2022-10-31T11:36:34.597Z,62.97
2022-10-31T11:39:01.028Z,63.12
2022-10-31T11:41:28.773Z,63.23
2022-10-31T11:43:58.869Z,63.08
2022-10-31T11:46:34.127Z,63.32
2022-10-31T11:49:00.455Z,63.38
2022-10-31T11:51:28.855Z,63.70
2022-10-31T11:53:59.833Z,63.69
2022-10-31T11:56:29.486Z,63.23
2022-10-31T11:58:57.022Z,63.36
2022-10-31T12:01:27.121Z,65.60
2022-10-31T12:04:07.888Z,65.35
2022-10-31T12:06:35.065Z,65.00
2022-10-31T12:09:01.421Z,63.41
2022-10-31T12:11:46.279Z,62.80
2022-10-31T12:14:38.749Z,61.82
2022-10-31T12:17:07.521Z,61.77
2022-10-31T12:19:36.890Z,61.69
2022-10-31T12:22:21.352Z,60.68
2022-10-31T12:24:53.747Z,61.03
2022-10-31T12:27:23.957Z,60.57
2022-10-31T12:29:59.397Z,61.16
2022-10-31T12:32:41.058Z,60.49
2022-10-31T12:35:25.797Z,60.11
2022-10-31T12:37:52.066Z,59.88
2022-10-31T12:40:30.699Z,59.67
2022-10-31T12:43:00.500Z,59.56
2022-10-31T12:45:45.922Z,59.57
2022-10-31T12:48:12.295Z,59.58
2022-10-31T12:50:41.798Z,59.29
2022-10-31T12:53:08.199Z,59.61
2022-10-31T12:55:47.269Z,59.41
2022-10-31T12:58:24.443Z,58.76
2022-10-31T13:00:52.649Z,58.71
2022-10-31T13:03:45.143Z,58.65
2022-10-31T13:06:13.954Z,58.76
2022-10-31T13:08:41.685Z,58.75
2022-10-31T13:11:11.045Z,59.05
2022-10-31T13:13:40.307Z,58.63
2022-10-31T13:16:11.583Z,59.04
2022-10-31T13:18:41.716Z,58.54
2022-10-31T13:21:17.869Z,58.08
2022-10-31T13:23:50.744Z,58.79
2022-10-31T13:26:35.467Z,59.20
2022-10-31T13:29:16.784Z,59.40
2022-10-31T13:31:43.214Z,59.40
2022-10-31T13:34:11.851Z,58.94
2022-10-31T13:36:39.592Z,59.32
2022-10-31T13:39:13.343Z,59.22
2022-10-31T13:41:48.064Z,59.70
2022-10-31T13:44:16.027Z,59.96
2022-10-31T13:49:29.169Z,60.56
2022-10-31T13:52:13.877Z,60.61
2022-10-31T13:54:47.432Z,60.88
2022-10-31T13:57:13.875Z,60.65
2022-10-31T13:59:40.218Z,60.37
2022-10-31T14:02:18.939Z,60.73
2022-10-31T14:04:46.157Z,61.41
2022-10-31T14:07:13.496Z,61.48
2022-10-31T14:09:40.529Z,61.79
2022-10-31T14:12:08.140Z,61.40
2022-10-31T14:14:36.063Z,61.32
2022-10-31T14:17:02.415Z,61.37
2022-10-31T14:19:28.780Z,61.52
2022-10-31T14:21:55.100Z,62.09
2022-10-31T14:24:24.385Z,62.05
2022-10-31T14:26:54.755Z,61.88
2022-10-31T14:29:22.095Z,61.93
2022-10-31T14:31:55.331Z,61.85
2022-10-31T14:34:28.497Z,61.75
2022-10-31T14:37:13.633Z,61.93
2022-10-31T14:39:39.887Z,61.89
2022-10-31T14:42:19.519Z,62.37
2022-10-31T14:44:48.752Z,62.88
2022-10-31T14:47:21.637Z,62.06
2022-10-31T14:49:47.890Z,61.73
2022-10-31T14:52:14.507Z,61.09
2022-10-31T14:54:44.934Z,61.03
2022-10-31T14:57:15.913Z,61.03
2022-10-31T14:59:43.345Z,61.02
2022-10-31T15:02:11.732Z,61.50
2022-10-31T15:04:38.184Z,61.38
2022-10-31T15:07:17.192Z,61.97
2022-10-31T15:09:46.740Z,61.92
2022-10-31T15:12:23.189Z,61.87
2022-10-31T15:14:49.516Z,61.80
2022-10-31T15:17:15.819Z,61.30
2022-10-31T15:19:42.130Z,61.51
2022-10-31T15:22:08.436Z,61.54
2022-10-31T15:24:35.601Z,61.32
2022-10-31T15:27:04.846Z,62.10
2022-10-31T15:29:31.714Z,61.57
2022-10-31T15:32:16.973Z,61.95
2022-10-31T15:34:43.570Z,61.67
2022-10-31T15:37:14.614Z,61.58
2022-10-31T15:39:40.969Z,61.99
2022-10-31T15:42:20.802Z,60.55
2022-10-31T15:44:48.254Z,60.55
2022-10-31T15:47:17.776Z,60.31
2022-10-31T15:49:54.502Z,60.22
2022-10-31T15:52:35.170Z,60.65
2022-10-31T15:55:05.518Z,60.77
2022-10-31T15:57:31.933Z,60.76
2022-10-31T15:59:58.272Z,61.04
2022-10-31T16:02:25.533Z,61.00
2022-10-31T16:04:53.469Z,61.16
2022-10-31T16:07:23.170Z,61.05
2022-10-31T16:10:00.013Z,61.46
2022-10-31T16:12:31.150Z,61.69
2022-10-31T16:14:57.498Z,61.88
2022-10-31T16:17:24.059Z,61.67
2022-10-31T16:19:51.935Z,61.59
2022-10-31T16:22:25.604Z,61.73
2022-10-31T16:24:56.509Z,61.82
2022-10-31T16:27:26.567Z,62.23
2022-10-31T16:29:52.969Z,62.18
2022-10-31T16:32:31.507Z,62.06
2022-10-31T16:34:58.673Z,62.22
2022-10-31T16:37:25.060Z,61.35
2022-10-31T16:39:51.395Z,62.43
2022-10-31T16:42:17.737Z,62.49
2022-10-31T16:44:44.677Z,62.45
2022-10-31T16:47:13.265Z,61.71
2022-10-31T16:49:39.641Z,62.85
2022-10-31T16:52:06.126Z,62.68
2022-10-31T16:54:32.445Z,61.69
2022-10-31T16:56:59.266Z,61.43
2022-10-31T16:59:25.635Z,61.84
2022-10-31T17:01:52.055Z,63.09
2022-10-31T17:04:18.925Z,63.07
2022-10-31T17:06:45.340Z,63.58
2022-10-31T17:09:11.659Z,63.87
2022-10-31T17:11:37.985Z,64.41
2022-10-31T17:14:04.593Z,64.65
2022-10-31T17:16:31.059Z,64.24
2022-10-31T17:18:57.521Z,63.83
2022-10-31T17:21:24.334Z,63.99
2022-10-31T17:23:50.813Z,64.16
2022-10-31T17:26:17.237Z,64.62
2022-10-31T17:28:43.628Z,64.67
2022-10-31T17:31:11.928Z,64.70
2022-10-31T17:33:38.264Z,65.16
2022-10-31T17:36:04.674Z,65.01
2022-10-31T17:38:30.995Z,65.11
2022-10-31T17:40:57.316Z,65.51
2022-10-31T17:43:27.017Z,65.22
2022-10-31T17:45:53.437Z,65.52
2022-10-31T17:48:19.773Z,65.31
2022-10-31T17:50:46.118Z,65.88
2022-10-31T17:53:12.422Z,65.86
2022-10-31T17:55:38.731Z,65.74
2022-10-31T17:58:05.121Z,64.77
2022-10-31T18:00:31.468Z,64.81
2022-10-31T18:02:57.904Z,65.19
2022-10-31T18:05:24.336Z,65.43
2022-10-31T18:07:51.100Z,66.05
2022-10-31T18:10:17.421Z,66.29
2022-10-31T18:12:43.916Z,66.61
2022-10-31T18:15:10.326Z,66.96
2022-10-31T18:17:39.454Z,67.08
2022-10-31T18:20:08.549Z,66.96
2022-10-31T18:22:34.870Z,67.12
2022-10-31T18:25:02.272Z,66.87
2022-10-31T18:27:30.071Z,66.89
2022-10-31T18:29:56.391Z,67.30
2022-10-31T18:32:22.706Z,67.60
2022-10-31T18:34:49.037Z,67.73
2022-10-31T18:37:15.368Z,67.28
2022-10-31T18:39:41.942Z,67.73
2022-10-31T18:42:08.302Z,67.70
2022-10-31T18:44:34.664Z,67.59
2022-10-31T18:47:00.977Z,67.40
2022-10-31T18:49:29.231Z,67.06
2022-10-31T18:51:55.635Z,67.35
2022-10-31T18:54:21.960Z,65.67
2022-10-31T18:56:48.300Z,63.34
2022-10-31T18:59:14.613Z,61.43
2022-10-31T19:01:41.076Z,60.93
2022-10-31T19:04:07.531Z,60.83
2022-10-31T19:06:33.871Z,60.43
2022-10-31T19:09:00.882Z,60.50
2022-10-31T19:11:27.228Z,60.94
2022-10-31T19:13:53.566Z,61.04
2022-10-31T19:16:19.885Z,61.66
2022-10-31T19:18:46.230Z,64.09
2022-10-31T19:21:16.834Z,61.20
2022-10-31T19:23:43.291Z,61.50
2022-10-31T19:26:09.678Z,61.28
2022-10-31T19:28:36.340Z,60.96
2022-10-31T19:31:02.662Z,61.63
2022-10-31T19:33:34.894Z,61.43
2022-10-31T19:36:03.499Z,63.60
2022-10-31T19:38:29.832Z,63.82
2022-10-31T19:40:57.211Z,64.84
2022-10-31T19:45:54.417Z,65.10
2022-10-31T19:48:20.735Z,65.25
2022-10-31T19:50:47.041Z,65.01
2022-10-31T19:53:13.389Z,65.22
2022-10-31T19:55:40.033Z,65.49
2022-10-31T19:58:06.363Z,65.06
2022-10-31T20:00:32.663Z,65.46
2022-10-31T20:02:59.307Z,65.45
2022-10-31T20:05:25.958Z,65.52
2022-10-31T20:07:52.297Z,65.57
2022-10-31T20:10:18.609Z,66.01
2022-10-31T20:12:44.945Z,66.09
2022-10-31T20:15:11.268Z,66.00
2022-10-31T20:17:37.568Z,66.22
2022-10-31T20:20:08.679Z,65.97
2022-10-31T20:22:35.643Z,66.42
2022-10-31T20:25:01.989Z,66.21
2022-10-31T20:27:28.669Z,66.45
2022-10-31T20:29:55.008Z,66.28
2022-10-31T20:32:21.464Z,65.70
2022-10-31T20:37:19.011Z,65.97
2022-10-31T20:39:45.340Z,66.38
2022-10-31T20:42:12.061Z,65.99
2022-10-31T20:44:38.371Z,66.40
2022-10-31T20:47:06.532Z,66.27
2022-10-31T20:49:32.852Z,66.19
2022-10-31T20:51:59.169Z,66.27
2022-10-31T20:54:25.498Z,66.19
2022-10-31T20:56:51.807Z,66.08
2022-10-31T20:59:19.813Z,66.42
2022-10-31T21:01:46.224Z,66.21
2022-10-31T21:04:12.667Z,66.94
2022-10-31T21:06:38.995Z,66.96
2022-10-31T21:09:05.323Z,66.63
2022-10-31T21:11:31.765Z,67.09
2022-10-31T21:13:58.382Z,67.04
2022-10-31T21:16:25.772Z,67.07
2022-10-31T21:18:52.216Z,67.25
2022-10-31T21:21:19.708Z,66.42
2022-10-31T21:23:46.023Z,66.25
2022-10-31T21:26:16.478Z,66.22
2022-10-31T21:28:42.810Z,66.21
2022-10-31T21:31:09.844Z,67.02
2022-10-31T21:33:36.180Z,66.89
2022-10-31T21:36:02.594Z,67.23
2022-10-31T21:38:28.899Z,66.66
2022-10-31T21:41:01.928Z,66.52
2022-10-31T21:43:28.251Z,66.67
2022-10-31T21:45:54.564Z,66.90
2022-10-31T21:48:20.895Z,66.82
2022-10-31T21:50:47.201Z,66.65
2022-10-31T21:53:32.254Z,66.38
2022-10-31T21:56:02.189Z,66.53
2022-10-31T21:58:28.866Z,66.39
2022-10-31T22:00:55.267Z,66.27
2022-10-31T22:03:21.666Z,66.60
2022-10-31T22:05:48.015Z,66.55
2022-10-31T22:08:14.375Z,66.65
2022-10-31T22:10:40.684Z,66.63
2022-10-31T22:13:07.092Z,66.88
2022-10-31T22:15:33.469Z,66.82
2022-10-31T22:18:00.118Z,67.13
2022-10-31T22:20:26.604Z,66.98
2022-10-31T22:22:52.968Z,66.69
2022-10-31T22:25:19.284Z,66.97
2022-10-31T22:27:45.600Z,67.48
2022-10-31T22:30:11.916Z,67.33
2022-10-31T22:32:38.235Z,67.17
2022-10-31T22:35:04.719Z,66.68
2022-10-31T22:37:31.031Z,67.35
2022-10-31T22:39:57.342Z,67.03
2022-10-31T22:42:23.666Z,67.08
2022-10-31T22:44:50.042Z,67.08
2022-10-31T22:47:16.360Z,67.15
2022-10-31T22:49:42.758Z,67.39
2022-10-31T22:52:09.080Z,67.17
2022-10-31T22:54:35.392Z,67.75
2022-10-31T22:57:01.724Z,67.38
2022-10-31T22:59:28.038Z,67.59
2022-10-31T23:01:54.546Z,67.77
2022-10-31T23:04:21.071Z,67.54
2022-10-31T23:06:49.031Z,67.68
2022-10-31T23:09:15.562Z,67.26
2022-10-31T23:11:41.885Z,67.54
2022-10-31T23:14:10.439Z,67.19
2022-10-31T23:16:38.343Z,67.34
2022-10-31T23:19:08.008Z,67.18
2022-10-31T23:21:54.303Z,67.56
2022-10-31T23:24:24.040Z,67.42
2022-10-31T23:27:09.085Z,67.25
2022-10-31T23:29:35.333Z,67.54
2022-10-31T23:32:01.960Z,67.14
2022-10-31T23:34:28.301Z,67.34
2022-10-31T23:36:54.725Z,67.41
2022-10-31T23:39:24.218Z,67.58
2022-10-31T23:41:51.528Z,67.66
2022-10-31T23:44:17.847Z,67.38
2022-10-31T23:46:44.181Z,67.19
2022-10-31T23:49:10.505Z,67.63
2022-10-31T23:51:36.813Z,67.46
2022-10-31T23:54:03.151Z,67.35
2022-10-31T23:56:29.513Z,68.85
2022-10-31T23:58:55.871Z,68.65
